الصفحة الرئيسية
METAR-TAF:

METAR-TAF

مطار :

Palmer, ألاسكا, الولايات المتحدة

دائرة عرض: 61-36N, خط طول: 149-05W, ارتفاع: 74 متر

مراقبة الطقس الحالي

تاريخ ووقت الإصدار 9 دقيقة قبل الساعة 18:53UTC
ريح 3 عقدة من الجنوب
درجة الحرارة -8°درجة مئوية
الرطوبة 62%
ضغط 1015 hPa
الرؤية: 16.1 كم
غيوم مفككة على ارتفاع 7000 قدم

METAR: PAAQ 041853Z 17003KT 10SM BKN070 M08/M14 A2997 RMK AO2 SLP153 T10781139

زمن: 10:02 (19:02 UTC)

توقعات

تاريخ ووقت الإصدار 1ساعة و 32 دقيقة قبل الساعة 17:30UTC
التوقعات صالحة من04 الساعة 18 UTC إلى 05 الساعة 18 UTC
ريح 6 عقدة من الشمال
الرؤية: 10 كم
ملبد بالغيوم على ارتفاع 7000 قدم
من 05 الساعة 0300 UTC
ريح 6 عقدة من الشمال/الشمال الشرقي
الرؤية: 10 كم
ملبد بالغيوم على ارتفاع 3500 قدم
ثلوج خفيفة
من 05 الساعة 0800 UTC
ريح 5 عقدة من الشمال الشرقي
الرؤية: 10 كم
غيوم مفككة على ارتفاع 4500 قدم

TAF: PAAQ 041730Z 0418/0518 36006KT P6SM OVC070 FM050300 03006KT P6SM -SN OVC035 FM050800 04005KT P6SM BKN045

أرصاد الطقس والتوقعات من أكثر من 4000 مطار (تقارير الطقس للمطار METAR والتنبؤ بالطقس بالمطارTAF).

المحطات المتاحة هي النقط الصفراء والحمراء على الخريطة.

حرك المؤشر فوق النقطة لمعرفة اسم المحطة.

ثم انقر لمعرفة أرصاد وتوقعات الطقس.

لتغيير الخارطة: اضغط على الأزرار الخضراء مع رمز الصليب الأسود للتكبير. على الزر الأخضر مع شرطة للتصغير، أو على الأسهم الخضراء للخرائط المجاورة.


METAR-TAF: